sim
Sign-in with your pilot id or email,
or register
Callsign
Passwort

Schedule Details

Flight Number: OEO5679
Departure: Frankfurt Airport (EDDF) at 19:55
Arrival: Munich Airport (EDDM) at 21:05

Weather Information
Getting current METAR information for EDDF 211150Z VRB04KT CAVOK 25/07 Q1015 NOSIG
Getting current METAR information for EDDM 211150Z 04004KT 330V110 CAVOK 22/13 Q1016 NOSIG

Schedule Frequency

Route Map